sensor_id;sensor_type;location;lat;lon;timestamp;P1;durP1;ratioP1;P2;durP2;ratioP2
21754;SDS011;11039;50.028;19.938;2023-03-13T00:00:19;6.25;;;3.80;;
21754;SDS011;11039;50.028;19.938;2023-03-13T00:02:45;5.22;;;3.53;;
21754;SDS011;11039;50.028;19.938;2023-03-13T00:05:12;5.05;;;3.90;;
21754;SDS011;11039;50.028;19.938;2023-03-13T00:07:38;4.90;;;3.50;;
21754;SDS011;11039;50.028;19.938;2023-03-13T00:10:05;5.57;;;3.75;;
21754;SDS011;11039;50.028;19.938;2023-03-13T00:12:31;4.72;;;3.65;;
21754;SDS011;11039;50.028;19.938;2023-03-13T00:14:58;6.38;;;3.55;;
21754;SDS011;11039;50.028;19.938;2023-03-13T00:17:24;5.38;;;3.50;;
21754;SDS011;11039;50.028;19.938;2023-03-13T00:19:50;4.95;;;3.25;;
21754;SDS011;11039;50.028;19.938;2023-03-13T00:22:16;4.35;;;3.42;;
21754;SDS011;11039;50.028;19.938;2023-03-13T00:24:42;4.45;;;3.42;;
21754;SDS011;11039;50.028;19.938;2023-03-13T00:27:08;5.07;;;3.40;;
21754;SDS011;11039;50.028;19.938;2023-03-13T00:29:34;5.78;;;3.38;;
21754;SDS011;11039;50.028;19.938;2023-03-13T00:32:00;4.25;;;3.10;;
21754;SDS011;11039;50.028;19.938;2023-03-13T00:34:26;4.65;;;3.40;;
21754;SDS011;11039;50.028;19.938;2023-03-13T00:36:53;4.70;;;3.38;;
21754;SDS011;11039;50.028;19.938;2023-03-13T00:39:20;4.35;;;3.05;;
21754;SDS011;11039;50.028;19.938;2023-03-13T00:41:46;4.53;;;3.20;;
21754;SDS011;11039;50.028;19.938;2023-03-13T00:44:12;4.25;;;3.13;;
21754;SDS011;11039;50.028;19.938;2023-03-13T00:46:38;4.85;;;3.22;;
21754;SDS011;11039;50.028;19.938;2023-03-13T00:49:05;4.43;;;3.20;;
21754;SDS011;11039;50.028;19.938;2023-03-13T00:51:31;5.07;;;3.40;;
21754;SDS011;11039;50.028;19.938;2023-03-13T00:53:57;4.90;;;3.10;;
21754;SDS011;11039;50.028;19.938;2023-03-13T00:56:28;4.88;;;2.97;;
21754;SDS011;11039;50.028;19.938;2023-03-13T00:58:54;4.22;;;3.20;;
21754;SDS011;11039;50.028;19.938;2023-03-13T01:01:21;4.03;;;2.80;;
21754;SDS011;11039;50.028;19.938;2023-03-13T01:03:49;4.45;;;3.08;;
21754;SDS011;11039;50.028;19.938;2023-03-13T01:06:16;3.30;;;2.72;;
21754;SDS011;11039;50.028;19.938;2023-03-13T01:08:42;3.78;;;2.75;;
21754;SDS011;11039;50.028;19.938;2023-03-13T01:11:10;3.45;;;2.63;;
21754;SDS011;11039;50.028;19.938;2023-03-13T01:13:36;3.45;;;2.80;;
21754;SDS011;11039;50.028;19.938;2023-03-13T01:16:03;3.58;;;2.65;;
21754;SDS011;11039;50.028;19.938;2023-03-13T01:18:30;3.60;;;2.60;;
21754;SDS011;11039;50.028;19.938;2023-03-13T01:20:56;4.05;;;3.03;;
21754;SDS011;11039;50.028;19.938;2023-03-13T01:23:22;4.43;;;2.97;;
21754;SDS011;11039;50.028;19.938;2023-03-13T01:25:48;4.10;;;2.83;;
21754;SDS011;11039;50.028;19.938;2023-03-13T01:28:14;4.30;;;2.72;;
21754;SDS011;11039;50.028;19.938;2023-03-13T01:30:40;3.38;;;2.55;;
21754;SDS011;11039;50.028;19.938;2023-03-13T01:33:06;3.30;;;2.38;;
21754;SDS011;11039;50.028;19.938;2023-03-13T01:35:32;2.83;;;2.28;;
21754;SDS011;11039;50.028;19.938;2023-03-13T01:37:58;3.03;;;2.20;;
21754;SDS011;11039;50.028;19.938;2023-03-13T01:40:24;3.92;;;2.58;;
21754;SDS011;11039;50.028;19.938;2023-03-13T01:48:02;3.10;;;2.25;;
21754;SDS011;11039;50.028;19.938;2023-03-13T01:50:28;3.13;;;2.28;;
21754;SDS011;11039;50.028;19.938;2023-03-13T01:52:55;3.42;;;2.33;;
21754;SDS011;11039;50.028;19.938;2023-03-13T01:55:21;3.28;;;2.35;;
21754;SDS011;11039;50.028;19.938;2023-03-13T01:57:48;3.38;;;2.22;;
21754;SDS011;11039;50.028;19.938;2023-03-13T02:00:19;2.72;;;2.05;;
21754;SDS011;11039;50.028;19.938;2023-03-13T02:02:47;3.47;;;2.20;;
21754;SDS011;11039;50.028;19.938;2023-03-13T02:05:14;2.97;;;2.30;;
21754;SDS011;11039;50.028;19.938;2023-03-13T02:07:42;3.28;;;2.35;;
21754;SDS011;11039;50.028;19.938;2023-03-13T02:10:09;2.85;;;2.13;;
21754;SDS011;11039;50.028;19.938;2023-03-13T02:12:38;3.45;;;2.08;;
21754;SDS011;11039;50.028;19.938;2023-03-13T02:15:08;2.80;;;1.80;;
21754;SDS011;11039;50.028;19.938;2023-03-13T02:17:35;2.60;;;2.00;;
21754;SDS011;11039;50.028;19.938;2023-03-13T02:20:02;3.63;;;1.98;;
21754;SDS011;11039;50.028;19.938;2023-03-13T02:22:41;3.10;;;1.98;;
21754;SDS011;11039;50.028;19.938;2023-03-13T02:27:44;2.83;;;2.10;;
21754;SDS011;11039;50.028;19.938;2023-03-13T02:30:12;2.33;;;1.83;;
21754;SDS011;11039;50.028;19.938;2023-03-13T02:32:38;2.00;;;1.80;;
21754;SDS011;11039;50.028;19.938;2023-03-13T02:35:09;2.00;;;1.65;;
21754;SDS011;11039;50.028;19.938;2023-03-13T02:37:35;2.42;;;1.75;;
21754;SDS011;11039;50.028;19.938;2023-03-13T02:40:03;3.20;;;1.88;;
21754;SDS011;11039;50.028;19.938;2023-03-13T02:42:31;2.75;;;1.67;;
21754;SDS011;11039;50.028;19.938;2023-03-13T02:44:57;2.63;;;1.90;;
21754;SDS011;11039;50.028;19.938;2023-03-13T02:47:23;2.00;;;1.50;;
21754;SDS011;11039;50.028;19.938;2023-03-13T02:49:49;2.30;;;1.83;;
21754;SDS011;11039;50.028;19.938;2023-03-13T02:54:42;2.63;;;1.95;;
21754;SDS011;11039;50.028;19.938;2023-03-13T02:57:09;2.10;;;1.60;;
21754;SDS011;11039;50.028;19.938;2023-03-13T02:59:35;2.47;;;1.70;;
21754;SDS011;11039;50.028;19.938;2023-03-13T03:02:02;2.30;;;1.50;;
21754;SDS011;11039;50.028;19.938;2023-03-13T03:04:28;2.50;;;1.42;;
21754;SDS011;11039;50.028;19.938;2023-03-13T03:06:54;3.03;;;1.38;;
21754;SDS011;11039;50.028;19.938;2023-03-13T03:09:20;1.88;;;1.50;;
21754;SDS011;11039;50.028;19.938;2023-03-13T03:11:47;2.17;;;1.40;;
21754;SDS011;11039;50.028;19.938;2023-03-13T03:14:13;2.00;;;1.40;;
21754;SDS011;11039;50.028;19.938;2023-03-13T03:16:39;2.17;;;1.30;;
21754;SDS011;11039;50.028;19.938;2023-03-13T03:19:05;2.15;;;1.75;;
21754;SDS011;11039;50.028;19.938;2023-03-13T03:21:32;1.88;;;1.42;;
21754;SDS011;11039;50.028;19.938;2023-03-13T03:23:58;1.67;;;1.40;;
21754;SDS011;11039;50.028;19.938;2023-03-13T03:26:25;2.03;;;1.40;;
21754;SDS011;11039;50.028;19.938;2023-03-13T03:28:51;1.67;;;1.40;;
21754;SDS011;11039;50.028;19.938;2023-03-13T03:31:17;1.20;;;1.10;;
21754;SDS011;11039;50.028;19.938;2023-03-13T03:33:44;2.42;;;1.30;;
21754;SDS011;11039;50.028;19.938;2023-03-13T03:36:14;1.92;;;1.40;;
21754;SDS011;11039;50.028;19.938;2023-03-13T03:38:41;2.95;;;1.13;;
21754;SDS011;11039;50.028;19.938;2023-03-13T03:41:08;1.60;;;1.27;;
21754;SDS011;11039;50.028;19.938;2023-03-13T03:43:34;1.95;;;1.20;;
21754;SDS011;11039;50.028;19.938;2023-03-13T03:46:00;2.10;;;1.10;;
21754;SDS011;11039;50.028;19.938;2023-03-13T03:48:26;1.85;;;1.25;;
21754;SDS011;11039;50.028;19.938;2023-03-13T03:50:53;1.15;;;1.00;;
21754;SDS011;11039;50.028;19.938;2023-03-13T03:53:19;1.70;;;1.20;;
21754;SDS011;11039;50.028;19.938;2023-03-13T03:55:45;1.58;;;0.93;;
21754;SDS011;11039;50.028;19.938;2023-03-13T03:58:11;2.30;;;1.40;;
21754;SDS011;11039;50.028;19.938;2023-03-13T04:00:37;1.73;;;1.38;;
21754;SDS011;11039;50.028;19.938;2023-03-13T04:03:03;1.85;;;1.20;;
21754;SDS011;11039;50.028;19.938;2023-03-13T04:05:29;1.35;;;1.00;;
21754;SDS011;11039;50.028;19.938;2023-03-13T04:07:55;1.65;;;1.35;;
21754;SDS011;11039;50.028;19.938;2023-03-13T04:10:21;1.65;;;1.17;;
21754;SDS011;11039;50.028;19.938;2023-03-13T04:12:47;1.20;;;1.00;;
21754;SDS011;11039;50.028;19.938;2023-03-13T04:15:13;1.73;;;1.30;;
21754;SDS011;11039;50.028;19.938;2023-03-13T04:17:39;1.60;;;1.05;;
21754;SDS011;11039;50.028;19.938;2023-03-13T04:20:05;2.42;;;1.20;;
21754;SDS011;11039;50.028;19.938;2023-03-13T04:22:32;1.20;;;1.00;;
21754;SDS011;11039;50.028;19.938;2023-03-13T04:24:58;1.40;;;1.00;;
21754;SDS011;11039;50.028;19.938;2023-03-13T04:27:24;1.77;;;1.40;;
21754;SDS011;11039;50.028;19.938;2023-03-13T04:29:51;1.48;;;1.08;;
21754;SDS011;11039;50.028;19.938;2023-03-13T04:32:17;1.88;;;1.02;;
21754;SDS011;11039;50.028;19.938;2023-03-13T04:34:43;1.15;;;0.95;;
21754;SDS011;11039;50.028;19.938;2023-03-13T04:37:09;1.58;;;1.10;;
21754;SDS011;11039;50.028;19.938;2023-03-13T04:39:35;1.20;;;0.90;;
21754;SDS011;11039;50.028;19.938;2023-03-13T04:42:01;1.27;;;1.00;;
21754;SDS011;11039;50.028;19.938;2023-03-13T04:44:27;1.00;;;0.90;;
21754;SDS011;11039;50.028;19.938;2023-03-13T04:46:53;1.38;;;1.13;;
21754;SDS011;11039;50.028;19.938;2023-03-13T04:49:19;1.23;;;1.00;;
21754;SDS011;11039;50.028;19.938;2023-03-13T04:51:45;1.20;;;0.95;;
21754;SDS011;11039;50.028;19.938;2023-03-13T04:54:12;1.60;;;1.20;;
21754;SDS011;11039;50.028;19.938;2023-03-13T04:56:38;1.70;;;1.00;;
21754;SDS011;11039;50.028;19.938;2023-03-13T04:59:04;1.10;;;0.98;;
21754;SDS011;11039;50.028;19.938;2023-03-13T05:01:30;2.40;;;1.10;;
21754;SDS011;11039;50.028;19.938;2023-03-13T05:03:56;1.58;;;1.10;;
21754;SDS011;11039;50.028;19.938;2023-03-13T05:06:23;2.63;;;1.17;;
21754;SDS011;11039;50.028;19.938;2023-03-13T05:08:49;1.77;;;0.95;;
21754;SDS011;11039;50.028;19.938;2023-03-13T05:11:15;1.80;;;1.10;;
21754;SDS011;11039;50.028;19.938;2023-03-13T05:13:41;2.20;;;1.17;;
21754;SDS011;11039;50.028;19.938;2023-03-13T05:16:07;1.23;;;0.82;;
21754;SDS011;11039;50.028;19.938;2023-03-13T05:18:33;1.15;;;0.80;;
21754;SDS011;11039;50.028;19.938;2023-03-13T05:21:01;1.13;;;0.85;;
21754;SDS011;11039;50.028;19.938;2023-03-13T05:23:27;1.42;;;0.90;;
21754;SDS011;11039;50.028;19.938;2023-03-13T05:25:53;1.58;;;0.90;;
21754;SDS011;11039;50.028;19.938;2023-03-13T05:28:19;1.30;;;0.88;;
21754;SDS011;11039;50.028;19.938;2023-03-13T05:30:45;1.17;;;0.80;;
21754;SDS011;11039;50.028;19.938;2023-03-13T05:33:11;0.90;;;0.80;;
21754;SDS011;11039;50.028;19.938;2023-03-13T05:35:37;1.30;;;1.00;;
21754;SDS011;11039;50.028;19.938;2023-03-13T05:38:03;1.48;;;0.90;;
21754;SDS011;11039;50.028;19.938;2023-03-13T05:40:29;1.08;;;0.85;;
21754;SDS011;11039;50.028;19.938;2023-03-13T05:42:55;1.75;;;0.90;;
21754;SDS011;11039;50.028;19.938;2023-03-13T05:45:22;0.98;;;0.70;;
21754;SDS011;11039;50.028;19.938;2023-03-13T05:47:49;1.15;;;0.90;;
21754;SDS011;11039;50.028;19.938;2023-03-13T05:50:15;1.00;;;0.90;;
21754;SDS011;11039;50.028;19.938;2023-03-13T05:52:41;1.40;;;1.08;;
21754;SDS011;11039;50.028;19.938;2023-03-13T05:55:07;1.20;;;0.90;;
21754;SDS011;11039;50.028;19.938;2023-03-13T05:57:33;2.47;;;0.70;;
21754;SDS011;11039;50.028;19.938;2023-03-13T06:00:00;2.85;;;0.88;;
21754;SDS011;11039;50.028;19.938;2023-03-13T06:02:26;1.10;;;0.90;;
21754;SDS011;11039;50.028;19.938;2023-03-13T06:04:52;1.20;;;0.70;;
21754;SDS011;11039;50.028;19.938;2023-03-13T06:07:18;1.67;;;0.90;;
21754;SDS011;11039;50.028;19.938;2023-03-13T06:09:44;0.88;;;0.80;;
21754;SDS011;11039;50.028;19.938;2023-03-13T06:12:11;1.58;;;0.80;;
21754;SDS011;11039;50.028;19.938;2023-03-13T06:14:37;1.02;;;0.80;;
21754;SDS011;11039;50.028;19.938;2023-03-13T06:17:03;1.67;;;0.85;;
21754;SDS011;11039;50.028;19.938;2023-03-13T06:19:29;1.23;;;0.80;;
21754;SDS011;11039;50.028;19.938;2023-03-13T06:21:56;3.40;;;1.00;;
21754;SDS011;11039;50.028;19.938;2023-03-13T06:24:22;1.55;;;0.90;;
21754;SDS011;11039;50.028;19.938;2023-03-13T06:26:48;2.45;;;0.80;;
21754;SDS011;11039;50.028;19.938;2023-03-13T06:29:15;2.20;;;1.00;;
21754;SDS011;11039;50.028;19.938;2023-03-13T06:31:41;2.92;;;0.80;;
21754;SDS011;11039;50.028;19.938;2023-03-13T06:34:07;1.50;;;0.90;;
21754;SDS011;11039;50.028;19.938;2023-03-13T06:36:35;1.50;;;0.90;;
21754;SDS011;11039;50.028;19.938;2023-03-13T06:39:01;2.15;;;0.90;;
21754;SDS011;11039;50.028;19.938;2023-03-13T06:41:28;1.15;;;0.70;;
21754;SDS011;11039;50.028;19.938;2023-03-13T06:43:54;1.55;;;0.80;;
21754;SDS011;11039;50.028;19.938;2023-03-13T06:46:21;2.38;;;0.80;;
21754;SDS011;11039;50.028;19.938;2023-03-13T06:48:48;0.85;;;0.70;;
21754;SDS011;11039;50.028;19.938;2023-03-13T06:51:14;1.52;;;1.02;;
21754;SDS011;11039;50.028;19.938;2023-03-13T06:53:41;0.98;;;0.70;;
21754;SDS011;11039;50.028;19.938;2023-03-13T06:56:07;1.92;;;0.80;;
21754;SDS011;11039;50.028;19.938;2023-03-13T06:58:33;1.20;;;0.90;;
21754;SDS011;11039;50.028;19.938;2023-03-13T07:01:06;0.90;;;0.80;;
21754;SDS011;11039;50.028;19.938;2023-03-13T07:03:33;2.25;;;0.93;;
21754;SDS011;11039;50.028;19.938;2023-03-13T07:05:59;1.55;;;0.90;;
21754;SDS011;11039;50.028;19.938;2023-03-13T07:08:25;2.20;;;0.90;;
21754;SDS011;11039;50.028;19.938;2023-03-13T07:10:53;1.83;;;0.80;;
21754;SDS011;11039;50.028;19.938;2023-03-13T07:13:19;1.77;;;1.10;;
21754;SDS011;11039;50.028;19.938;2023-03-13T07:15:46;3.03;;;1.00;;
21754;SDS011;11039;50.028;19.938;2023-03-13T07:18:12;1.83;;;1.00;;
21754;SDS011;11039;50.028;19.938;2023-03-13T07:20:38;2.97;;;0.93;;
21754;SDS011;11039;50.028;19.938;2023-03-13T07:23:04;1.40;;;0.63;;
21754;SDS011;11039;50.028;19.938;2023-03-13T07:25:30;2.58;;;0.98;;
21754;SDS011;11039;50.028;19.938;2023-03-13T07:27:56;3.17;;;1.00;;
21754;SDS011;11039;50.028;19.938;2023-03-13T07:30:25;2.20;;;1.15;;
21754;SDS011;11039;50.028;19.938;2023-03-13T07:32:51;1.65;;;0.98;;
21754;SDS011;11039;50.028;19.938;2023-03-13T07:35:17;1.58;;;0.90;;
21754;SDS011;11039;50.028;19.938;2023-03-13T07:37:43;1.70;;;1.00;;
21754;SDS011;11039;50.028;19.938;2023-03-13T07:40:09;2.20;;;1.08;;
21754;SDS011;11039;50.028;19.938;2023-03-13T07:42:38;3.83;;;1.38;;
21754;SDS011;11039;50.028;19.938;2023-03-13T07:45:05;5.85;;;2.03;;
21754;SDS011;11039;50.028;19.938;2023-03-13T07:47:32;6.23;;;1.70;;
21754;SDS011;11039;50.028;19.938;2023-03-13T07:49:59;5.80;;;1.70;;
21754;SDS011;11039;50.028;19.938;2023-03-13T07:52:25;5.25;;;2.10;;
21754;SDS011;11039;50.028;19.938;2023-03-13T07:54:52;3.80;;;1.92;;
21754;SDS011;11039;50.028;19.938;2023-03-13T07:57:18;5.43;;;2.20;;
21754;SDS011;11039;50.028;19.938;2023-03-13T07:59:44;2.85;;;1.75;;
21754;SDS011;11039;50.028;19.938;2023-03-13T08:02:11;4.07;;;1.73;;
21754;SDS011;11039;50.028;19.938;2023-03-13T08:04:40;3.25;;;1.70;;
21754;SDS011;11039;50.028;19.938;2023-03-13T08:07:07;2.60;;;1.50;;
21754;SDS011;11039;50.028;19.938;2023-03-13T08:09:34;3.90;;;1.77;;
21754;SDS011;11039;50.028;19.938;2023-03-13T08:12:00;3.08;;;1.40;;
21754;SDS011;11039;50.028;19.938;2023-03-13T08:14:26;3.03;;;1.55;;
21754;SDS011;11039;50.028;19.938;2023-03-13T08:16:52;3.78;;;1.48;;
21754;SDS011;11039;50.028;19.938;2023-03-13T08:19:19;3.30;;;1.60;;
21754;SDS011;11039;50.028;19.938;2023-03-13T08:21:45;3.03;;;1.40;;
21754;SDS011;11039;50.028;19.938;2023-03-13T08:24:11;2.28;;;1.35;;
21754;SDS011;11039;50.028;19.938;2023-03-13T08:26:38;3.42;;;1.73;;
21754;SDS011;11039;50.028;19.938;2023-03-13T08:29:09;4.15;;;1.48;;
21754;SDS011;11039;50.028;19.938;2023-03-13T08:31:45;3.47;;;1.67;;
21754;SDS011;11039;50.028;19.938;2023-03-13T08:34:12;3.00;;;1.48;;
21754;SDS011;11039;50.028;19.938;2023-03-13T08:36:38;5.82;;;1.88;;
21754;SDS011;11039;50.028;19.938;2023-03-13T08:39:06;2.42;;;1.48;;
21754;SDS011;11039;50.028;19.938;2023-03-13T08:41:33;3.28;;;1.50;;
21754;SDS011;11039;50.028;19.938;2023-03-13T08:44:00;2.78;;;1.45;;
21754;SDS011;11039;50.028;19.938;2023-03-13T08:46:30;3.47;;;1.48;;
21754;SDS011;11039;50.028;19.938;2023-03-13T08:48:56;4.70;;;1.58;;
21754;SDS011;11039;50.028;19.938;2023-03-13T08:51:23;4.25;;;1.55;;
21754;SDS011;11039;50.028;19.938;2023-03-13T08:53:50;2.97;;;1.50;;
21754;SDS011;11039;50.028;19.938;2023-03-13T08:56:18;2.85;;;1.27;;
21754;SDS011;11039;50.028;19.938;2023-03-13T08:58:48;5.30;;;1.30;;
21754;SDS011;11039;50.028;19.938;2023-03-13T09:01:14;2.53;;;1.20;;
21754;SDS011;11039;50.028;19.938;2023-03-13T09:03:40;3.22;;;1.40;;
21754;SDS011;11039;50.028;19.938;2023-03-13T09:06:07;3.20;;;1.52;;
21754;SDS011;11039;50.028;19.938;2023-03-13T09:08:36;3.30;;;1.58;;
21754;SDS011;11039;50.028;19.938;2023-03-13T09:11:03;4.22;;;1.52;;
21754;SDS011;11039;50.028;19.938;2023-03-13T09:13:30;3.42;;;1.70;;
21754;SDS011;11039;50.028;19.938;2023-03-13T09:15:57;3.70;;;2.00;;
21754;SDS011;11039;50.028;19.938;2023-03-13T09:18:24;4.45;;;1.83;;
21754;SDS011;11039;50.028;19.938;2023-03-13T09:20:50;5.32;;;1.90;;
21754;SDS011;11039;50.028;19.938;2023-03-13T09:23:17;5.20;;;2.28;;
21754;SDS011;11039;50.028;19.938;2023-03-13T09:25:43;7.15;;;2.35;;
21754;SDS011;11039;50.028;19.938;2023-03-13T09:28:09;5.68;;;2.15;;
21754;SDS011;11039;50.028;19.938;2023-03-13T09:30:35;4.65;;;1.73;;
21754;SDS011;11039;50.028;19.938;2023-03-13T09:33:01;7.80;;;2.30;;
21754;SDS011;11039;50.028;19.938;2023-03-13T09:35:27;5.57;;;2.05;;
21754;SDS011;11039;50.028;19.938;2023-03-13T09:37:53;6.07;;;2.40;;
21754;SDS011;11039;50.028;19.938;2023-03-13T09:40:19;4.90;;;2.22;;
21754;SDS011;11039;50.028;19.938;2023-03-13T09:42:47;6.72;;;2.05;;
21754;SDS011;11039;50.028;19.938;2023-03-13T09:45:15;6.28;;;2.05;;
21754;SDS011;11039;50.028;19.938;2023-03-13T09:50:19;6.07;;;2.00;;
21754;SDS011;11039;50.028;19.938;2023-03-13T09:52:46;8.63;;;2.40;;
21754;SDS011;11039;50.028;19.938;2023-03-13T09:57:45;5.80;;;1.98;;
21754;SDS011;11039;50.028;19.938;2023-03-13T10:00:18;4.70;;;1.77;;
21754;SDS011;11039;50.028;19.938;2023-03-13T10:02:51;5.55;;;2.10;;
21754;SDS011;11039;50.028;19.938;2023-03-13T10:05:21;7.07;;;1.90;;
21754;SDS011;11039;50.028;19.938;2023-03-13T10:07:48;7.65;;;2.08;;
21754;SDS011;11039;50.028;19.938;2023-03-13T10:13:01;4.63;;;1.77;;
21754;SDS011;11039;50.028;19.938;2023-03-13T10:15:31;5.93;;;2.00;;
21754;SDS011;11039;50.028;19.938;2023-03-13T10:17:58;4.85;;;1.83;;
21754;SDS011;11039;50.028;19.938;2023-03-13T10:22:55;4.97;;;1.92;;
21754;SDS011;11039;50.028;19.938;2023-03-13T10:27:51;5.55;;;1.85;;
21754;SDS011;11039;50.028;19.938;2023-03-13T10:30:26;4.57;;;1.50;;
21754;SDS011;11039;50.028;19.938;2023-03-13T10:33:17;4.57;;;1.83;;
21754;SDS011;11039;50.028;19.938;2023-03-13T10:35:39;5.57;;;1.77;;
21754;SDS011;11039;50.028;19.938;2023-03-13T10:38:10;4.50;;;1.80;;
21754;SDS011;11039;50.028;19.938;2023-03-13T10:40:36;4.15;;;1.40;;
21754;SDS011;11039;50.028;19.938;2023-03-13T10:43:03;4.32;;;1.67;;
21754;SDS011;11039;50.028;19.938;2023-03-13T10:45:31;4.07;;;1.60;;
21754;SDS011;11039;50.028;19.938;2023-03-13T10:48:35;3.80;;;1.45;;
21754;SDS011;11039;50.028;19.938;2023-03-13T10:50:51;3.63;;;1.55;;
21754;SDS011;11039;50.028;19.938;2023-03-13T10:56:09;7.07;;;1.75;;
21754;SDS011;11039;50.028;19.938;2023-03-13T10:58:40;4.53;;;1.80;;
21754;SDS011;11039;50.028;19.938;2023-03-13T11:01:17;5.40;;;1.92;;
21754;SDS011;11039;50.028;19.938;2023-03-13T11:03:45;3.92;;;1.40;;
21754;SDS011;11039;50.028;19.938;2023-03-13T11:08:47;6.65;;;1.95;;
21754;SDS011;11039;50.028;19.938;2023-03-13T11:11:17;2.83;;;1.35;;
21754;SDS011;11039;50.028;19.938;2023-03-13T11:13:43;3.88;;;1.42;;
21754;SDS011;11039;50.028;19.938;2023-03-13T11:21:19;3.35;;;1.33;;
21754;SDS011;11039;50.028;19.938;2023-03-13T11:23:48;3.58;;;1.73;;
21754;SDS011;11039;50.028;19.938;2023-03-13T11:28:55;3.42;;;1.63;;
21754;SDS011;11039;50.028;19.938;2023-03-13T11:31:23;3.95;;;1.58;;
21754;SDS011;11039;50.028;19.938;2023-03-13T11:33:54;3.22;;;1.40;;
21754;SDS011;11039;50.028;19.938;2023-03-13T11:36:42;3.05;;;1.65;;
21754;SDS011;11039;50.028;19.938;2023-03-13T11:39:23;4.68;;;1.65;;
21754;SDS011;11039;50.028;19.938;2023-03-13T11:42:03;3.28;;;1.30;;
21754;SDS011;11039;50.028;19.938;2023-03-13T11:57:27;4.18;;;1.70;;
21754;SDS011;11039;50.028;19.938;2023-03-13T12:02:34;5.07;;;1.20;;
21754;SDS011;11039;50.028;19.938;2023-03-13T12:05:07;2.45;;;1.33;;
21754;SDS011;11039;50.028;19.938;2023-03-13T12:07:41;3.70;;;1.10;;
21754;SDS011;11039;50.028;19.938;2023-03-13T12:17:50;2.88;;;1.00;;
21754;SDS011;11039;50.028;19.938;2023-03-13T12:22:56;3.10;;;1.05;;
21754;SDS011;11039;50.028;19.938;2023-03-13T12:25:24;1.58;;;1.00;;
21754;SDS011;11039;50.028;19.938;2023-03-13T12:27:51;1.20;;;0.80;;
21754;SDS011;11039;50.028;19.938;2023-03-13T12:30:23;2.15;;;0.95;;
21754;SDS011;11039;50.028;19.938;2023-03-13T12:32:57;2.35;;;1.10;;
21754;SDS011;11039;50.028;19.938;2023-03-13T12:35:28;2.75;;;1.33;;
21754;SDS011;11039;50.028;19.938;2023-03-13T12:43:10;4.50;;;0.82;;
21754;SDS011;11039;50.028;19.938;2023-03-13T13:01:10;1.27;;;0.68;;
21754;SDS011;11039;50.028;19.938;2023-03-13T13:08:41;1.33;;;0.88;;
21754;SDS011;11039;50.028;19.938;2023-03-13T13:13:52;1.70;;;1.10;;
21754;SDS011;11039;50.028;19.938;2023-03-13T13:16:19;1.75;;;0.80;;
21754;SDS011;11039;50.028;19.938;2023-03-13T13:18:46;2.42;;;0.90;;
21754;SDS011;11039;50.028;19.938;2023-03-13T13:23:45;1.67;;;0.80;;
21754;SDS011;11039;50.028;19.938;2023-03-13T13:29:00;1.88;;;0.80;;
21754;SDS011;11039;50.028;19.938;2023-03-13T13:37:01;3.78;;;0.95;;
21754;SDS011;11039;50.028;19.938;2023-03-13T13:39:34;2.25;;;0.70;;
21754;SDS011;11039;50.028;19.938;2023-03-13T13:42:35;2.38;;;1.00;;
21754;SDS011;11039;50.028;19.938;2023-03-13T13:45:00;2.53;;;1.10;;
21754;SDS011;11039;50.028;19.938;2023-03-13T13:47:28;3.22;;;0.95;;
21754;SDS011;11039;50.028;19.938;2023-03-13T13:49:58;2.25;;;1.02;;
21754;SDS011;11039;50.028;19.938;2023-03-13T13:54:57;2.45;;;1.10;;
21754;SDS011;11039;50.028;19.938;2023-03-13T13:57:24;1.67;;;0.65;;
21754;SDS011;11039;50.028;19.938;2023-03-13T14:00:03;2.10;;;0.80;;
21754;SDS011;11039;50.028;19.938;2023-03-13T14:02:32;1.60;;;0.80;;
21754;SDS011;11039;50.028;19.938;2023-03-13T14:05:00;1.95;;;0.90;;
21754;SDS011;11039;50.028;19.938;2023-03-13T14:09:58;1.40;;;0.75;;
21754;SDS011;11039;50.028;19.938;2023-03-13T14:12:26;2.53;;;0.90;;
21754;SDS011;11039;50.028;19.938;2023-03-13T14:15:10;2.13;;;1.02;;
21754;SDS011;11039;50.028;19.938;2023-03-13T14:20:16;2.05;;;0.85;;
21754;SDS011;11039;50.028;19.938;2023-03-13T14:22:43;1.45;;;0.75;;
21754;SDS011;11039;50.028;19.938;2023-03-13T14:25:10;2.60;;;0.70;;
21754;SDS011;11039;50.028;19.938;2023-03-13T14:27:41;3.03;;;1.10;;
21754;SDS011;11039;50.028;19.938;2023-03-13T14:30:08;1.65;;;1.02;;
21754;SDS011;11039;50.028;19.938;2023-03-13T14:32:34;3.45;;;1.00;;
21754;SDS011;11039;50.028;19.938;2023-03-13T14:35:00;2.60;;;0.80;;
21754;SDS011;11039;50.028;19.938;2023-03-13T14:37:36;1.63;;;0.80;;
21754;SDS011;11039;50.028;19.938;2023-03-13T14:42:51;2.70;;;0.90;;
21754;SDS011;11039;50.028;19.938;2023-03-13T14:45:22;3.65;;;1.08;;
21754;SDS011;11039;50.028;19.938;2023-03-13T14:47:50;1.13;;;0.65;;
21754;SDS011;11039;50.028;19.938;2023-03-13T14:50:17;1.83;;;0.95;;
21754;SDS011;11039;50.028;19.938;2023-03-13T14:53:10;1.90;;;0.90;;
21754;SDS011;11039;50.028;19.938;2023-03-13T14:55:30;1.25;;;0.70;;
21754;SDS011;11039;50.028;19.938;2023-03-13T14:58:02;1.50;;;0.85;;
21754;SDS011;11039;50.028;19.938;2023-03-13T15:00:39;1.50;;;0.70;;
21754;SDS011;11039;50.028;19.938;2023-03-13T15:05:38;2.17;;;0.93;;
21754;SDS011;11039;50.028;19.938;2023-03-13T15:08:09;1.70;;;0.52;;
21754;SDS011;11039;50.028;19.938;2023-03-13T15:10:36;2.20;;;0.90;;
21754;SDS011;11039;50.028;19.938;2023-03-13T15:13:22;2.25;;;0.93;;
21754;SDS011;11039;50.028;19.938;2023-03-13T15:15:49;1.95;;;0.90;;
21754;SDS011;11039;50.028;19.938;2023-03-13T15:18:19;1.85;;;0.85;;
21754;SDS011;11039;50.028;19.938;2023-03-13T15:20:53;1.17;;;0.63;;
21754;SDS011;11039;50.028;19.938;2023-03-13T15:23:19;1.85;;;0.95;;
21754;SDS011;11039;50.028;19.938;2023-03-13T15:25:45;1.65;;;0.80;;
21754;SDS011;11039;50.028;19.938;2023-03-13T15:28:16;1.52;;;0.75;;
21754;SDS011;11039;50.028;19.938;2023-03-13T15:30:43;1.00;;;0.63;;
21754;SDS011;11039;50.028;19.938;2023-03-13T15:33:17;1.75;;;0.88;;
21754;SDS011;11039;50.028;19.938;2023-03-13T15:35:44;0.98;;;0.60;;
21754;SDS011;11039;50.028;19.938;2023-03-13T15:38:28;1.00;;;0.60;;
21754;SDS011;11039;50.028;19.938;2023-03-13T15:40:54;1.38;;;0.63;;
21754;SDS011;11039;50.028;19.938;2023-03-13T15:43:21;1.67;;;0.82;;
21754;SDS011;11039;50.028;19.938;2023-03-13T15:45:47;1.55;;;0.88;;
21754;SDS011;11039;50.028;19.938;2023-03-13T15:48:18;1.42;;;0.70;;
21754;SDS011;11039;50.028;19.938;2023-03-13T15:50:45;1.65;;;0.70;;
21754;SDS011;11039;50.028;19.938;2023-03-13T15:53:18;2.47;;;0.90;;
21754;SDS011;11039;50.028;19.938;2023-03-13T15:55:47;1.70;;;0.80;;
21754;SDS011;11039;50.028;19.938;2023-03-13T15:58:14;1.35;;;0.90;;
21754;SDS011;11039;50.028;19.938;2023-03-13T16:00:41;1.63;;;0.90;;
21754;SDS011;11039;50.028;19.938;2023-03-13T16:03:18;1.05;;;0.70;;
21754;SDS011;11039;50.028;19.938;2023-03-13T16:05:45;1.90;;;1.13;;
21754;SDS011;11039;50.028;19.938;2023-03-13T16:08:12;1.33;;;0.85;;
21754;SDS011;11039;50.028;19.938;2023-03-13T16:10:39;2.63;;;1.05;;
21754;SDS011;11039;50.028;19.938;2023-03-13T16:13:05;2.08;;;1.00;;
21754;SDS011;11039;50.028;19.938;2023-03-13T16:15:33;2.47;;;1.10;;
21754;SDS011;11039;50.028;19.938;2023-03-13T16:17:59;1.50;;;0.82;;
21754;SDS011;11039;50.028;19.938;2023-03-13T16:20:25;4.15;;;0.90;;
21754;SDS011;11039;50.028;19.938;2023-03-13T16:22:53;3.80;;;1.20;;
21754;SDS011;11039;50.028;19.938;2023-03-13T16:25:19;1.77;;;0.98;;
21754;SDS011;11039;50.028;19.938;2023-03-13T16:27:45;2.05;;;0.90;;
21754;SDS011;11039;50.028;19.938;2023-03-13T16:30:21;2.13;;;1.00;;